Time;durP1;ratioP1;P1;durP2;ratioP2;P2;SDS_P1;SDS_P2;PMS_P1;PMS_P2;Temp;Humidity;BMP_temperature;BMP_pressure;BME280_temperature;BME280_humidity;BME280_pressure;Samples;Min_cycle;Max_cycle;Signal;HPM_P1;HPM_P2
2021/05/01 00:01:53;;;;;;;13.62;9.95;;;;;;;13.04;76.87;99085.25;1747293;81;21113;-76
2021/05/01 00:04:20;;;;;;;14.45;9.68;;;;;;;12.91;77.03;99087.69;1747537;82;21642;-76
2021/05/01 00:06:47;;;;;;;13.03;9.68;;;;;;;12.84;77.15;99081.75;1747513;82;21182;-76
2021/05/01 00:09:14;;;;;;;14.63;10.00;;;;;;;12.88;76.93;99084.00;1747619;82;21189;-76
2021/05/01 00:11:43;;;;;;;12.70;10.05;;;;;;;12.77;77.19;99074.37;1747516;82;21169;-76
2021/05/01 00:14:12;;;;;;;12.63;9.68;;;;;;;12.77;77.19;99074.37;1740529;82;21145;-76
2021/05/01 00:16:39;;;;;;;15.00;9.75;;;;;;;12.62;77.39;99076.58;1712281;84;21602;-76
2021/05/01 00:19:06;;;;;;;15.50;9.70;;;;;;;12.59;77.35;99075.51;1727841;82;21273;-76
2021/05/01 00:21:34;;;;;;;12.07;9.55;;;;;;;12.61;77.00;99065.61;1747447;82;21180;-76
2021/05/01 00:24:03;;;;;;;16.75;10.40;;;;;;;12.49;77.02;99065.38;1747395;82;21601;-76
2021/05/01 00:26:30;;;;;;;13.28;9.88;;;;;;;12.37;77.43;99062.02;1747743;82;21598;-76
2021/05/01 00:28:57;;;;;;;12.88;10.28;;;;;;;12.29;77.66;99073.80;1739997;82;21198;-76
2021/05/01 00:31:26;;;;;;;9.43;7.33;;;;;;;12.29;76.87;99079.10;1726273;82;21142;-75
2021/05/01 00:33:53;;;;;;;10.10;7.97;;;;;;;12.29;76.87;99079.10;1746792;82;21150;-75
2021/05/01 00:36:22;;;;;;;11.48;8.55;;;;;;;12.08;76.68;99075.19;1747449;82;21173;-75
2021/05/01 00:38:50;;;;;;;14.78;9.00;;;;;;;11.94;77.07;99089.13;1736661;82;21164;-76
2021/05/01 00:41:17;;;;;;;11.20;8.60;;;;;;;11.94;77.15;99091.78;1746852;82;21678;-74
2021/05/01 00:43:46;;;;;;;13.13;9.73;;;;;;;12.06;76.91;99095.67;1747565;82;21111;-74
2021/05/01 00:46:17;;;;;;;12.15;9.30;;;;;;;12.03;76.98;99091.47;1727359;82;21119;-75
2021/05/01 00:48:45;;;;;;;12.30;8.98;;;;;;;11.94;77.22;99103.70;1747445;82;21151;-75
2021/05/01 00:51:12;;;;;;;13.20;9.33;;;;;;;11.89;77.53;99100.62;1747401;81;21195;-75
2021/05/01 00:53:39;;;;;;;13.62;9.50;;;;;;;12.01;77.37;99100.53;1747525;82;21120;-75
2021/05/01 00:56:07;;;;;;;12.63;9.80;;;;;;;12.05;77.31;99092.19;1711764;84;21205;-74
2021/05/01 00:58:34;;;;;;;13.30;9.43;;;;;;;11.95;77.48;99098.77;1748255;82;21144;-74
2021/05/01 01:03:39;;;;;;;13.10;9.25;;;;;;;11.89;77.86;99105.91;1747836;81;21150;-74
2021/05/01 01:06:07;;;;;;;11.80;8.88;;;;;;;11.94;77.71;99097.08;1725305;82;21166;-74
2021/05/01 01:08:35;;;;;;;14.05;9.50;;;;;;;11.81;78.03;99107.05;1712120;84;21318;-74
2021/05/01 01:11:04;;;;;;;16.02;10.28;;;;;;;11.68;78.33;99103.78;1737763;82;21645;-74
2021/05/01 01:13:33;;;;;;;12.20;9.65;;;;;;;11.62;78.40;99100.69;1747517;82;21188;-74
2021/05/01 01:16:01;;;;;;;13.35;9.80;;;;;;;11.71;78.15;99107.48;1747588;82;21123;-74
2021/05/01 01:18:28;;;;;;;13.93;10.43;;;;;;;11.66;78.22;99112.33;1747691;82;21626;-74
2021/05/01 01:23:36;;;;;;;15.32;10.50;;;;;;;11.44;78.51;99116.80;1787450;79;23051;-74
2021/05/01 01:26:04;;;;;;;16.23;10.75;;;;;;;11.36;78.54;99120.09;1758857;81;21138;-74
2021/05/01 01:28:32;;;;;;;15.80;9.65;;;;;;;11.44;78.31;99118.11;1724334;83;21147;-74
2021/05/01 01:30:59;;;;;;;17.75;10.58;;;;;;;11.41;78.42;99125.00;1699953;83;21333;-73
2021/05/01 01:33:30;;;;;;;15.25;10.00;;;;;;;11.31;78.56;99126.25;1727634;83;21634;-74
2021/05/01 01:35:57;;;;;;;15.25;8.63;;;;;;;11.26;78.74;99129.27;1727726;83;21202;-73
2021/05/01 01:38:25;;;;;;;15.95;9.58;;;;;;;11.35;78.46;99133.45;1698702;84;21178;-73
2021/05/01 01:40:54;;;;;;;14.15;8.70;;;;;;;11.31;78.23;99128.89;1714905;83;21337;-73
2021/05/01 01:43:21;;;;;;;35.85;9.35;;;;;;;11.17;78.44;99137.98;1729304;83;21349;-73
2021/05/01 01:45:48;;;;;;;14.95;9.58;;;;;;;11.01;78.68;99141.53;1718386;82;21178;-73
2021/05/01 01:48:15;;;;;;;13.78;8.50;;;;;;;10.91;78.78;99137.49;1707601;84;21214;-73
2021/05/01 01:50:43;;;;;;;16.45;8.60;;;;;;;10.97;78.71;99136.50;1707818;82;21166;-74
2021/05/01 01:53:10;;;;;;;23.05;9.10;;;;;;;11.01;78.88;99151.64;1705979;84;21310;-74
2021/05/01 01:55:37;;;;;;;15.50;10.13;;;;;;;10.96;79.21;99146.72;1707586;84;21593;-74
2021/05/01 01:58:04;;;;;;;14.73;9.98;;;;;;;10.91;79.40;99146.75;1707438;84;21676;-74
2021/05/01 02:00:35;;;;;;;15.75;9.63;;;;;;;10.98;79.41;99156.70;1707216;84;21190;-74
2021/05/01 02:03:02;;;;;;;23.87;10.53;;;;;;;11.11;79.19;99159.66;1707253;83;21236;-74
2021/05/01 02:05:30;;;;;;;34.15;9.80;;;;;;;11.08;79.30;99167.85;1679360;84;21192;-74
2021/05/01 02:07:59;;;;;;;15.75;10.48;;;;;;;11.03;79.45;99163.42;1678650;85;21200;-75
2021/05/01 02:10:26;;;;;;;16.73;9.35;;;;;;;11.01;79.45;99167.98;1679625;84;21191;-74
2021/05/01 02:12:53;;;;;;;15.45;9.13;;;;;;;11.12;79.21;99174.08;1701691;84;21170;-74
2021/05/01 02:15:24;;;;;;;17.50;9.10;;;;;;;11.11;79.19;99170.23;1707155;84;21159;-74
2021/05/01 02:17:54;;;;;;;13.65;7.75;;;;;;;11.04;79.35;99178.34;1707261;84;21200;-74
2021/05/01 02:20:34;;;;;;;10.32;8.35;;;;;;;10.99;79.48;99179.53;1707096;84;21183;-75
2021/05/01 02:23:02;;;;;;;14.68;7.72;;;;;;;11.08;79.15;99177.12;1705917;83;21356;-75
2021/05/01 02:25:29;;;;;;;18.65;7.67;;;;;;;11.12;79.08;99178.54;1705620;84;21185;-72
2021/05/01 02:27:56;;;;;;;11.70;7.72;;;;;;;11.06;79.27;99181.68;1705407;83;21310;-72
2021/05/01 02:30:26;;;;;;;8.38;6.83;;;;;;;11.00;79.50;99176.42;1705743;84;21155;-75
2021/05/01 02:32:57;;;;;;;8.78;6.33;;;;;;;11.08;79.28;99175.80;1706559;83;21186;-75
2021/05/01 02:35:31;;;;;;;13.50;6.22;;;;;;;11.12;78.89;99184.66;1705388;84;21143;-73
2021/05/01 02:38:00;;;;;;;21.85;7.25;;;;;;;11.04;79.03;99178.34;1705096;84;21313;-78
2021/05/01 02:40:31;;;;;;;6.35;5.72;;;;;;;10.89;79.28;99175.95;1704969;84;21305;-75
2021/05/01 02:43:08;;;;;;;11.53;6.80;;;;;;;10.90;79.44;99185.58;1703267;84;21135;-75
2021/05/01 02:45:35;;;;;;;10.60;7.42;;;;;;;10.94;79.09;99187.49;1704343;84;21175;-75
2021/05/01 02:48:06;;;;;;;9.05;6.35;;;;;;;10.86;79.37;99197.38;1705063;84;21111;-74
2021/05/01 02:50:34;;;;;;;12.70;7.87;;;;;;;10.75;79.34;99196.89;1705019;84;21627;-76
2021/05/01 02:53:01;;;;;;;9.80;7.35;;;;;;;10.58;79.49;99188.99;1704629;84;21147;-74
2021/05/01 02:55:28;;;;;;;10.88;7.67;;;;;;;10.60;79.62;99196.80;1683739;84;21194;-74
2021/05/01 02:57:55;;;;;;;13.08;7.90;;;;;;;10.72;79.31;99204.26;1676807;85;21611;-75
2021/05/01 03:00:27;;;;;;;9.75;7.62;;;;;;;10.70;79.25;99199.56;1691105;84;21630;-74
2021/05/01 03:02:55;;;;;;;10.03;8.10;;;;;;;10.62;79.27;99198.36;1704852;84;21221;-74
2021/05/01 03:05:23;;;;;;;11.30;9.05;;;;;;;10.58;79.16;99202.21;1705031;84;21620;-75
2021/05/01 03:07:50;;;;;;;11.33;9.15;;;;;;;10.69;78.81;99203.16;1704955;84;21218;-74
2021/05/01 03:10:21;;;;;;;12.30;8.80;;;;;;;10.72;78.88;99204.26;1704992;84;21215;-74
2021/05/01 03:12:49;;;;;;;14.78;9.35;;;;;;;10.72;79.27;99216.16;1705047;83;21191;-74
2021/05/01 03:15:16;;;;;;;12.58;9.10;;;;;;;10.80;79.53;99220.34;1705217;84;21230;-75
2021/05/01 03:17:44;;;;;;;16.95;10.38;;;;;;;11.06;79.33;99224.02;1704552;84;21301;-74
2021/05/01 03:20:12;;;;;;;13.85;10.65;;;;;;;11.28;79.32;99223.96;1684706;84;21202;-74
2021/05/01 03:22:40;;;;;;;16.75;11.20;;;;;;;11.45;79.62;99221.24;1676626;84;21313;-74
2021/05/01 03:25:09;;;;;;;16.20;11.60;;;;;;;11.75;79.48;99225.44;1704820;84;21166;-74
2021/05/01 03:27:38;;;;;;;21.00;15.40;;;;;;;12.22;78.84;99225.91;1704543;84;21195;-75
2021/05/01 03:30:11;;;;;;;23.02;16.80;;;;;;;12.58;78.17;99229.03;1705105;84;21159;-75
2021/05/01 03:32:40;;;;;;;;;;;;;;;12.69;77.47;99233.88;1670486;84;21131;-74
2021/05/01 03:35:09;;;;;;;25.70;18.55;;;;;;;12.68;77.28;99237.50;1697982;84;20147;-75
2021/05/01 03:37:38;;;;;;;22.10;17.35;;;;;;;12.93;76.92;99237.02;1692058;84;21623;-74
2021/05/01 03:40:07;;;;;;;22.27;16.77;;;;;;;13.39;76.21;99237.41;1704715;84;21180;-74
2021/05/01 03:42:35;;;;;;;23.67;16.67;;;;;;;13.76;75.08;99237.20;1703265;84;21320;-75
2021/05/01 03:45:05;;;;;;;22.37;16.37;;;;;;;14.04;74.31;99234.62;1703264;83;21143;-75
2021/05/01 03:47:32;;;;;;;18.55;13.75;;;;;;;14.31;73.34;99235.69;1704350;84;21207;-75
2021/05/01 03:50:00;;;;;;;17.17;12.68;;;;;;;14.61;72.83;99244.42;1688182;84;21167;-75
2021/05/01 03:52:27;;;;;;;17.15;12.05;;;;;;;15.08;71.75;99243.02;1703474;84;21162;-74
2021/05/01 03:54:55;;;;;;;19.12;12.60;;;;;;;15.62;70.13;99246.22;1704858;84;21178;-75
2021/05/01 03:57:22;;;;;;;16.90;11.65;;;;;;;15.94;69.03;99248.34;1698311;84;21342;-76
2021/05/01 03:59:50;;;;;;;18.07;13.40;;;;;;;16.25;68.20;99251.06;1684731;84;21143;-76
2021/05/01 04:02:19;;;;;;;18.48;12.45;;;;;;;16.50;67.30;99256.05;1688496;84;21240;-75
2021/05/01 04:04:46;;;;;;;17.82;12.82;;;;;;;16.69;66.31;99254.47;1686434;80;21617;-75
2021/05/01 04:07:15;;;;;;;15.10;11.68;;;;;;;16.94;65.65;99268.47;1685171;85;21322;-76
2021/05/01 04:09:42;;;;;;;16.10;11.28;;;;;;;17.24;64.87;99262.20;1725266;83;21167;-76
2021/05/01 04:12:10;;;;;;;14.38;10.85;;;;;;;17.61;63.85;99259.59;1724253;83;21175;-76
2021/05/01 04:14:38;;;;;;;12.75;10.58;;;;;;;18.01;62.94;99264.16;1724039;83;21152;-75
2021/05/01 04:17:07;;;;;;;14.85;10.80;;;;;;;18.20;62.05;99263.48;1724188;82;21135;-76
2021/05/01 04:19:37;;;;;;;16.15;11.30;;;;;;;18.39;61.76;99263.63;1726017;81;21159;-76
2021/05/01 04:22:04;;;;;;;12.75;9.65;;;;;;;18.56;60.99;99268.95;1725489;82;21348;-75
2021/05/01 04:24:35;;;;;;;13.80;10.90;;;;;;;18.75;60.75;99273.08;1755365;81;21178;-73
2021/05/01 04:27:02;;;;;;;17.00;11.28;;;;;;;18.95;60.02;99273.52;1732459;82;21347;-76
2021/05/01 04:29:31;;;;;;;15.25;12.18;;;;;;;19.08;59.79;99272.47;1734515;82;21170;-76
2021/05/01 04:31:58;;;;;;;20.88;15.65;;;;;;;19.28;59.21;99268.00;1755468;82;21285;-74
2021/05/01 04:34:26;;;;;;;14.65;11.57;;;;;;;19.41;58.87;99266.08;1755700;82;21166;-75
2021/05/01 04:36:54;;;;;;;12.53;10.23;;;;;;;19.51;58.59;99275.24;1755000;82;21158;-76
2021/05/01 04:39:21;;;;;;;15.10;12.05;;;;;;;19.61;58.38;99266.45;1719439;83;21167;-74
2021/05/01 04:41:51;;;;;;;16.70;11.45;;;;;;;19.71;58.10;99274.27;1755501;82;21198;-75
2021/05/01 04:44:21;;;;;;;13.48;10.38;;;;;;;19.84;57.86;99277.20;1755582;82;21210;-75
2021/05/01 04:46:54;;;;;;;13.75;10.65;;;;;;;19.96;57.59;99278.45;1743884;82;21607;-74
2021/05/01 04:49:21;;;;;;;14.50;10.82;;;;;;;20.17;57.13;99278.77;1748342;82;21167;-75
2021/05/01 04:51:49;;;;;;;14.10;11.45;;;;;;;20.32;56.76;99274.77;1755434;80;21186;-75
2021/05/01 04:55:29;;;;;;;16.48;11.73;;;;;;;20.53;56.04;99266.84;1761605;79;23039;-75
2021/05/01 04:57:56;;;;;;;14.25;10.98;;;;;;;20.80;55.75;99268.58;1749492;82;21135;-75
2021/05/01 05:00:23;;;;;;;12.73;10.40;;;;;;;21.16;55.00;99266.96;1731361;82;21584;-76
2021/05/01 05:02:51;;;;;;;12.82;9.50;;;;;;;21.40;53.80;99267.95;1723233;83;21592;-76
2021/05/01 05:05:19;;;;;;;14.20;10.72;;;;;;;21.39;54.20;99268.97;1723101;83;21162;-76
2021/05/01 05:07:46;;;;;;;13.38;9.28;;;;;;;21.61;53.48;99263.64;1723255;83;21755;-76
2021/05/01 05:10:15;;;;;;;16.25;10.65;;;;;;;21.72;53.24;99263.13;1722551;82;21256;-76
2021/05/01 05:12:43;;;;;;;13.88;11.30;;;;;;;21.79;53.07;99260.53;1723183;83;21178;-76
2021/05/01 05:15:11;;;;;;;13.18;10.43;;;;;;;21.88;52.85;99265.23;1696866;83;21175;-77
2021/05/01 05:17:38;;;;;;;13.72;10.68;;;;;;;21.91;51.69;99264.34;1694506;85;21337;-77
2021/05/01 05:20:07;;;;;;;11.63;9.60;;;;;;;21.77;52.33;99272.80;1694333;84;21178;-78
2021/05/01 05:22:34;;;;;;;11.48;9.95;;;;;;;21.85;52.69;99273.19;1698832;83;21607;-75
2021/05/01 05:25:01;;;;;;;13.68;10.98;;;;;;;22.01;52.74;99269.41;1721306;83;21162;-76
2021/05/01 05:27:28;;;;;;;14.03;10.45;;;;;;;22.21;52.20;99266.03;1723482;83;21291;-76
2021/05/01 05:29:57;;;;;;;12.53;10.68;;;;;;;22.36;51.49;99257.36;1719192;83;21206;-76
2021/05/01 05:32:24;;;;;;;12.82;10.45;;;;;;;22.52;51.15;99262.97;1696512;84;21214;-76
2021/05/01 05:34:54;;;;;;;13.20;11.55;;;;;;;22.58;51.29;99261.33;1696511;84;21182;-76
2021/05/01 05:37:23;;;;;;;12.88;9.80;;;;;;;22.50;51.49;99267.72;1720186;83;21131;-76
2021/05/01 05:39:51;;;;;;;12.45;9.45;;;;;;;22.45;51.31;99261.27;1715743;83;21146;-76
2021/05/01 05:42:22;;;;;;;12.05;10.10;;;;;;;22.42;51.21;99262.49;1701885;83;21655;-77
2021/05/01 05:44:52;;;;;;;11.80;10.30;;;;;;;22.12;51.83;99260.48;1722492;83;21482;-76
2021/05/01 05:47:21;;;;;;;12.43;10.50;;;;;;;21.96;52.39;99271.84;1723152;83;21163;-75
2021/05/01 05:49:49;;;;;;;11.55;9.75;;;;;;;21.88;52.88;99272.81;1714634;82;21184;-76
2021/05/01 05:52:16;;;;;;;12.55;10.45;;;;;;;21.91;51.82;99275.64;1713951;83;21742;-75
2021/05/01 05:54:43;;;;;;;11.83;10.53;;;;;;;21.79;51.89;99278.02;1717784;83;21205;-76
2021/05/01 05:57:11;;;;;;;12.43;10.25;;;;;;;21.74;53.14;99285.31;1722911;83;21197;-77
2021/05/01 05:59:41;;;;;;;13.00;9.85;;;;;;;21.88;52.54;99277.34;1704601;83;21584;-77
2021/05/01 06:02:08;;;;;;;11.50;9.88;;;;;;;21.91;52.74;99272.42;1685866;83;21198;-75
2021/05/01 06:05:01;;;;;;;13.78;10.68;;;;;;;21.95;52.41;99276.91;1718189;83;21201;-75
2021/05/01 06:07:33;;;;;;;15.30;11.15;;;;;;;21.95;52.08;99271.52;1723366;83;21332;-77
2021/05/01 06:10:05;;;;;;;16.13;10.70;;;;;;;21.94;52.21;99273.89;1721776;83;21293;-77
2021/05/01 06:12:34;;;;;;;18.52;11.22;;;;;;;21.96;52.82;99275.03;1721449;83;21195;-76
2021/05/01 06:15:05;;;;;;;12.95;10.03;;;;;;;22.09;52.12;99282.72;1714787;83;21165;-75
2021/05/01 06:17:34;;;;;;;14.60;10.58;;;;;;;21.97;52.03;99246.59;1716762;83;21163;-77
2021/05/01 06:20:05;;;;;;;13.43;11.38;;;;;;;22.36;52.08;99289.69;1715251;83;21154;-77
2021/05/01 06:22:33;;;;;;;16.17;11.35;;;;;;;22.45;52.28;99282.82;1694284;85;21336;-77
2021/05/01 06:25:00;;;;;;;16.67;11.55;;;;;;;22.28;51.35;99276.34;1695217;83;21620;-77
2021/05/01 06:27:31;;;;;;;14.10;12.07;;;;;;;21.88;52.37;99280.05;1716783;83;21171;-76
2021/05/01 06:29:58;;;;;;;12.43;10.20;;;;;;;21.77;53.72;99283.57;1721246;83;21162;-76
2021/05/01 06:32:25;;;;;;;16.82;12.37;;;;;;;21.96;52.78;99288.00;1672037;85;21277;-76
2021/05/01 06:34:56;;;;;;;12.33;10.80;;;;;;;22.03;53.48;99284.83;1696394;83;21140;-76
2021/05/01 06:37:25;;;;;;;14.70;13.15;;;;;;;22.18;52.38;99295.53;1696402;83;22487;-77
2021/05/01 06:39:56;;;;;;;17.35;14.25;;;;;;;22.25;52.72;99294.23;1694605;83;21159;-76
2021/05/01 06:42:27;;;;;;;13.93;10.98;;;;;;;22.36;51.49;99301.81;1721107;83;21151;-78
2021/05/01 06:45:16;;;;;;;12.98;10.32;;;;;;;22.40;50.56;99308.49;1715509;83;21285;-78
2021/05/01 06:48:04;;;;;;;14.20;10.82;;;;;;;22.22;51.23;99304.06;1707971;83;21293;-78
2021/05/01 06:50:32;;;;;;;11.90;10.03;;;;;;;22.22;50.23;99300.02;1717665;83;21316;-77
2021/05/01 06:53:01;;;;;;;14.30;11.60;;;;;;;22.05;50.52;99305.67;1696764;83;21162;-77
2021/05/01 06:55:32;;;;;;;14.25;11.97;;;;;;;21.93;51.19;99312.59;1684316;84;21352;-79
2021/05/01 06:58:00;;;;;;;11.90;10.63;;;;;;;21.90;51.98;99313.81;1667887;84;21143;-76
2021/05/01 07:00:29;;;;;;;11.30;9.15;;;;;;;21.99;51.59;99313.70;1709684;84;21333;-79
2021/05/01 07:03:07;;;;;;;13.35;10.48;;;;;;;22.03;51.42;99307.72;1693549;84;21305;-77
2021/05/01 07:05:35;;;;;;;11.73;10.43;;;;;;;22.02;51.24;99304.73;1683568;84;21375;-77
2021/05/01 07:08:05;;;;;;;11.15;9.95;;;;;;;22.04;51.51;99313.43;1695553;84;21168;-82
2021/05/01 07:10:33;;;;;;;10.90;9.20;;;;;;;22.16;50.75;99314.25;1709782;84;21155;-78
2021/05/01 07:13:00;;;;;;;12.65;10.38;;;;;;;22.18;50.48;99316.25;1709824;83;21341;-76
2021/05/01 07:15:29;;;;;;;10.88;9.60;;;;;;;22.18;51.44;99313.03;1709772;83;21180;-77
2021/05/01 07:17:57;;;;;;;10.68;8.98;;;;;;;22.32;51.46;99306.42;1709811;84;21176;-77
2021/05/01 07:20:25;;;;;;;10.55;9.40;;;;;;;22.45;50.56;99305.72;1709910;84;21178;-77
2021/05/01 07:22:53;;;;;;;8.55;7.65;;;;;;;22.60;48.95;99297.02;1710349;83;21152;-77
2021/05/01 07:25:22;;;;;;;8.83;7.92;;;;;;;22.70;47.48;99300.18;1709621;84;21337;-78
2021/05/01 07:27:56;;;;;;;10.70;8.90;;;;;;;22.72;46.55;99298.13;1710021;84;21318;-77
2021/05/01 07:30:26;;;;;;;9.85;8.15;;;;;;;22.73;46.36;99294.38;1710104;84;21618;-77
2021/05/01 07:32:57;;;;;;;7.58;5.37;;;;;;;22.67;46.65;99305.13;1709794;84;21152;-77
2021/05/01 07:35:25;;;;;;;6.53;5.08;;;;;;;22.57;41.30;99298.73;1709727;84;21196;-78
2021/05/01 07:37:54;;;;;;;6.85;6.15;;;;;;;22.58;41.76;99299.06;1709745;84;21313;-77
2021/05/01 07:40:26;;;;;;;9.78;7.45;;;;;;;22.66;41.62;99301.62;1709795;84;21191;-77
2021/05/01 07:42:53;;;;;;;8.40;7.28;;;;;;;22.73;44.01;99293.56;1710121;84;21164;-77
2021/05/01 07:48:04;;;;;;;7.75;6.00;;;;;;;22.90;42.43;99288.66;1778477;79;22591;-75
2021/05/01 07:50:32;;;;;;;7.60;6.10;;;;;;;22.85;41.74;99299.22;1753086;82;21358;-75
2021/05/01 07:52:59;;;;;;;6.33;5.70;;;;;;;22.86;41.13;99303.58;1753030;82;21166;-75
2021/05/01 07:55:26;;;;;;;7.65;5.85;;;;;;;22.80;40.21;99297.14;1723663;82;21281;-73
2021/05/01 07:57:54;;;;;;;10.75;6.20;;;;;;;22.73;40.88;99301.13;1752923;82;21186;-75
2021/05/01 08:00:21;;;;;;;6.50;5.62;;;;;;;22.78;41.40;99303.77;1753166;82;21151;-76
2021/05/01 08:02:48;;;;;;;7.37;5.35;;;;;;;22.78;40.40;99303.77;1752950;82;21337;-74
2021/05/01 08:05:21;;;;;;;7.00;6.28;;;;;;;22.71;40.16;99304.55;1753099;82;21183;-74
2021/05/01 08:07:52;;;;;;;7.12;6.05;;;;;;;22.72;40.94;99304.88;1753141;82;21314;-75
2021/05/01 08:10:19;;;;;;;6.12;5.45;;;;;;;22.81;41.57;99310.09;1753047;82;21322;-75
2021/05/01 08:12:46;;;;;;;6.40;5.70;;;;;;;22.88;40.95;99309.63;1752987;82;21297;-75
2021/05/01 08:15:14;;;;;;;7.08;5.67;;;;;;;22.90;38.69;99307.54;1753055;82;21627;-75
2021/05/01 08:17:41;;;;;;;7.47;5.33;;;;;;;22.71;37.50;99307.24;1753040;82;21167;-75
2021/05/01 08:20:12;;;;;;;7.15;6.03;;;;;;;22.40;39.09;99307.15;1752905;81;21178;-75
2021/05/01 08:22:41;;;;;;;6.67;5.37;;;;;;;22.42;40.20;99308.30;1753345;82;21135;-76
2021/05/01 08:25:11;;;;;;;8.15;5.50;;;;;;;22.54;39.07;99313.44;1753277;82;21608;-76
2021/05/01 08:27:39;;;;;;;6.92;5.45;;;;;;;22.59;36.39;99315.02;1753126;82;21186;-76
2021/05/01 08:30:11;;;;;;;5.45;4.40;;;;;;;22.62;37.60;99320.53;1751354;82;21151;-76
2021/05/01 08:32:38;;;;;;;6.87;4.97;;;;;;;22.72;35.52;99321.05;1723066;83;21167;-76
2021/05/01 08:35:07;;;;;;;6.53;4.40;;;;;;;22.81;36.21;99323.56;1722995;83;21155;-76
2021/05/01 08:37:34;;;;;;;6.75;4.80;;;;;;;22.87;34.50;99321.43;1723233;83;21151;-76
2021/05/01 08:40:04;;;;;;;6.87;4.83;;;;;;;22.90;34.70;99324.56;1723064;83;21150;-76
2021/05/01 08:42:31;;;;;;;5.58;4.78;;;;;;;22.92;34.65;99324.36;1723288;83;21159;-76
2021/05/01 08:45:04;;;;;;;7.22;4.25;;;;;;;22.88;33.69;99331.19;1723273;83;21612;-76
2021/05/01 08:47:37;;;;;;;4.78;4.08;;;;;;;22.69;33.03;99330.85;1714489;83;21163;-76
2021/05/01 08:50:05;;;;;;;6.65;4.20;;;;;;;22.51;33.09;99330.53;1710274;84;21143;-76
2021/05/01 08:52:32;;;;;;;4.90;3.98;;;;;;;22.40;33.92;99326.00;1710333;84;21325;-76
2021/05/01 08:55:01;;;;;;;6.60;3.52;;;;;;;22.44;34.44;99321.56;1710305;83;21548;-76
2021/05/01 08:57:30;;;;;;;4.72;3.80;;;;;;;22.41;30.07;99320.91;1710141;84;21330;-76
2021/05/01 08:59:57;;;;;;;5.65;3.52;;;;;;;22.30;31.78;99315.20;1709998;84;21159;-76
2021/05/01 09:02:27;;;;;;;5.42;3.87;;;;;;;22.33;31.59;99331.81;1709814;83;21179;-75
2021/05/01 09:04:54;;;;;;;4.90;3.85;;;;;;;22.40;32.16;99334.09;1709882;83;21183;-76
2021/05/01 09:07:24;;;;;;;6.62;3.87;;;;;;;22.44;30.32;99339.07;1709742;84;21168;-76
2021/05/01 09:09:59;;;;;;;4.30;3.85;;;;;;;22.35;31.66;99340.52;1709753;84;21325;-75
2021/05/01 09:12:47;;;;;;;6.80;4.78;;;;;;;22.37;33.36;99345.77;1709794;84;21151;-75
2021/05/01 09:15:24;;;;;;;5.53;4.42;;;;;;;22.42;33.07;99337.40;1709791;83;21564;-75
2021/05/01 09:18:02;;;;;;;6.33;4.15;;;;;;;22.50;33.22;99331.03;1710191;84;21167;-75
2021/05/01 09:20:29;;;;;;;6.33;4.50;;;;;;;22.55;34.34;99338.01;1709776;84;21167;-74
2021/05/01 09:22:59;;;;;;;6.45;3.90;;;;;;;22.54;31.46;99332.83;1709784;83;21321;-74
2021/05/01 09:25:35;;;;;;;5.60;4.33;;;;;;;22.38;33.99;99337.48;1709800;84;21643;-74
2021/05/01 09:28:10;;;;;;;7.15;4.50;;;;;;;22.46;34.43;99328.42;1706039;84;21809;-75
2021/05/01 09:30:39;;;;;;;6.47;4.55;;;;;;;22.58;34.34;99327.35;1709569;84;21328;-75
2021/05/01 09:33:29;;;;;;;6.15;4.00;;;;;;;22.62;31.85;99321.88;1709693;84;21330;-74
2021/05/01 09:36:21;;;;;;;5.97;4.00;;;;;;;22.61;33.85;99330.17;1709734;83;21600;-74
2021/05/01 09:38:51;;;;;;;6.53;4.37;;;;;;;22.70;33.74;99325.78;1709850;84;21706;-75
2021/05/01 09:41:22;;;;;;;4.97;3.90;;;;;;;22.81;33.83;99324.91;1709681;84;21337;-75
2021/05/01 09:44:09;;;;;;;6.25;3.70;;;;;;;22.88;33.39;99328.49;1710278;84;21564;-74
2021/05/01 09:46:43;;;;;;;4.83;3.70;;;;;;;22.95;32.43;99321.25;1712335;83;21194;-75
2021/05/01 09:49:31;;;;;;;5.72;3.67;;;;;;;22.97;31.84;99319.70;1722074;83;21127;-75
2021/05/01 09:52:12;;;;;;;4.65;4.03;;;;;;;22.97;31.97;99323.25;1723386;83;21290;-75
2021/05/01 09:54:42;;;;;;;6.92;3.98;;;;;;;22.87;32.01;99324.13;1723255;83;21123;-75
2021/05/01 09:57:17;;;;;;;6.47;4.28;;;;;;;22.78;32.74;99317.23;1723328;83;21191;-75
2021/05/01 09:59:50;;;;;;;6.20;4.22;;;;;;;22.76;31.84;99314.72;1723067;83;21167;-75
2021/05/01 10:02:33;;;;;;;;;;;;;;;22.61;31.71;99318.89;1725793;83;21164;-75
2021/05/01 10:05:11;;;;;;;4.37;3.72;;;;;;;22.53;31.30;99320.38;1723438;83;20128;-76
2021/05/01 10:07:42;;;;;;;6.00;4.30;;;;;;;22.41;30.20;99307.44;1723233;83;21699;-75
2021/05/01 10:10:10;;;;;;;6.62;4.25;;;;;;;22.41;31.05;99303.40;1723107;83;21176;-75
2021/05/01 10:12:40;;;;;;;5.25;3.98;;;;;;;22.40;32.46;99314.37;1723434;83;21166;-76
2021/05/01 10:15:19;;;;;;;4.22;3.55;;;;;;;22.49;32.77;99317.23;1723189;83;21309;-75
2021/05/01 10:17:49;;;;;;;6.72;4.12;;;;;;;22.58;31.45;99315.23;1722966;83;21163;-75
2021/05/01 10:20:20;;;;;;;5.28;3.67;;;;;;;22.56;32.38;99316.78;1723315;83;21154;-75
2021/05/01 10:22:50;;;;;;;5.12;3.83;;;;;;;22.68;33.24;99313.02;1723297;83;21285;-75
2021/05/01 10:25:25;;;;;;;6.10;4.12;;;;;;;22.87;32.24;99307.95;1723383;83;21179;-75
2021/05/01 10:27:56;;;;;;;5.50;3.92;;;;;;;22.95;31.81;99307.77;1723426;83;21143;-75
2021/05/01 10:30:37;;;;;;;6.37;4.00;;;;;;;23.00;31.31;99310.70;1723132;82;21139;-75
2021/05/01 10:33:31;;;;;;;5.12;3.95;;;;;;;23.07;31.37;99308.88;1699514;83;21305;-76
2021/05/01 10:36:07;;;;;;;4.50;3.90;;;;;;;23.07;30.05;99302.14;1723398;83;21709;-75
2021/05/01 10:38:35;;;;;;;5.25;3.80;;;;;;;23.03;29.63;99318.41;1723489;83;21616;-76
2021/05/01 10:41:08;;;;;;;4.10;3.27;;;;;;;22.98;30.44;99308.73;1723321;83;21706;-76
2021/05/01 10:43:39;;;;;;;;;;;;;;;22.98;28.13;99314.13;1725837;83;21521;-74
2021/05/01 10:46:10;;;;;;;5.37;3.98;;;;;;;22.92;29.88;99306.84;1723256;83;20204;-75
2021/05/01 10:48:52;;;;;;;6.15;3.37;;;;;;;22.86;29.68;99301.70;1711017;83;21186;-75
2021/05/01 10:51:23;;;;;;;4.15;3.30;;;;;;;22.74;29.48;99308.19;1709895;84;21180;-76
2021/05/01 10:54:16;;;;;;;5.30;3.80;;;;;;;22.75;30.10;99307.16;1709226;84;21204;-75
2021/05/01 10:56:49;;;;;;;;;;;;;;;22.84;31.55;99312.38;1712390;84;21196;-75
2021/05/01 10:59:20;;;;;;;6.05;3.75;;;;;;;22.94;31.57;99307.45;1709746;84;20299;-75
2021/05/01 11:01:49;;;;;;;5.62;3.50;;;;;;;22.99;31.62;99306.86;1709779;83;21184;-75
2021/05/01 11:04:26;;;;;;;4.28;2.98;;;;;;;22.89;29.47;99305.87;1709668;84;21587;-75
2021/05/01 11:07:21;;;;;;;3.92;3.20;;;;;;;22.69;29.86;99305.78;1709660;84;21151;-75
2021/05/01 11:09:49;;;;;;;4.20;3.27;;;;;;;22.52;30.42;99295.80;1708408;84;21378;-75
2021/05/01 11:12:20;;;;;;;5.80;3.90;;;;;;;22.47;31.33;99290.17;1709576;84;21183;-75
2021/05/01 11:15:01;;;;;;;5.40;4.03;;;;;;;22.56;31.39;99293.88;1709782;84;21636;-76
2021/05/01 11:17:34;;;;;;;5.72;3.83;;;;;;;22.71;31.23;99296.95;1709486;84;21167;-76
2021/05/01 11:20:11;;;;;;;7.15;3.90;;;;;;;22.67;30.67;99292.48;1710049;84;21679;-76
2021/05/01 11:22:41;;;;;;;4.87;3.77;;;;;;;22.54;29.90;99295.10;1709777;84;21608;-76
2021/05/01 11:25:14;;;;;;;5.35;3.60;;;;;;;22.45;29.80;99294.94;1709854;84;21630;-75
2021/05/01 11:27:46;;;;;;;5.33;3.70;;;;;;;22.41;30.88;99290.45;1696693;83;21822;-75
2021/05/01 11:30:24;;;;;;;6.03;3.80;;;;;;;22.44;31.70;99287.36;1704647;84;21723;-75
2021/05/01 11:32:52;;;;;;;9.43;4.10;;;;;;;22.49;32.40;99284.91;1708610;83;21136;-75
2021/05/01 11:35:25;;;;;;;5.65;3.80;;;;;;;22.58;32.17;99280.20;1709562;83;21183;-76
2021/05/01 11:37:55;;;;;;;4.20;3.52;;;;;;;22.66;31.29;99282.75;1708195;84;21675;-75
2021/05/01 11:40:34;;;;;;;5.35;3.98;;;;;;;22.60;31.33;99279.49;1709753;84;21207;-75
2021/05/01 11:43:03;;;;;;;3.67;3.10;;;;;;;22.47;30.19;99271.31;1709698;84;21156;-75
2021/05/01 11:45:47;;;;;;;6.60;3.60;;;;;;;22.31;31.36;99273.25;1709707;84;21186;-74
2021/05/01 11:48:18;;;;;;;4.60;4.03;;;;;;;22.30;32.46;99275.63;1706470;83;21195;-74
2021/05/01 11:50:47;;;;;;;4.30;3.60;;;;;;;22.36;30.88;99276.22;1689649;84;22138;-75